• Join FlightAware (Why Join?)
  • Login
  • US Flag 
02:03PM EDT


 

Airport Tracker/Info


-or-


 

Live Flight TrackerFlight Track Log ✈ AAY855 ✈ 23-Jul-2014 ✈ KSBN - KPIE

Flight Track Log - Related Links

Times and Time Zones

All times are in EDT time to prevent confusion due to time zone crossing. See the AAY855 flight status page for this flight to view local times or setup timezone preferences in your user account.

Time Position Orientation Groundspeed Altitude Reporting Facility
EDT Latitude Longitude Course Direction KTS MPH feet Rate Location/Type
07:57PM 41.5254 -86.3819 180° South 301 346 9,700  Level FlightAware ADS-B (KMDW)
07:58PM 41.4800 -86.3817 180° South 295 339 10,100 300 Climbing Chicago Center
07:58PM 41.4767 -86.3818 180° South 302 348 9,900 660 Descending FlightAware ADS-B (KMDW)
07:59PM 41.3936 -86.3808 180° South 306 352 10,800 1,200 Climbing Chicago Center
07:59PM 41.3243 -86.3769 173° South 362 417 11,900 1,920 Climbing FlightAware ADS-B (KMDW)
08:00PM 41.2299 -86.3618 173° South 379 436 13,900 2,160 Climbing FlightAware ADS-B (KMDW)
08:01PM 41.1219 -86.3448 173° South 386 444 16,300 2,220 Climbing FlightAware ADS-B (KMDW)
08:02PM 41.0515 -86.3336 173° South 388 447 17,600 1,800 Climbing FlightAware ADS-B (KMDW)
08:04PM 40.8751 -86.3333 180° South  Level FlightAware Approximate
08:04PM 40.8258 -86.2982 173° South 414 476 21,200  Level FlightAware ADS-B (KMDW)
08:05PM 40.7619 -86.2882 173° South 417 480 22,300 1,620 Climbing FlightAware ADS-B (KMDW)
08:05PM 40.6872 -86.2766 173° South 422 486 23,200 1,560 Climbing FlightAware ADS-B (KMDW)
08:06PM 40.6026 -86.2635 173° South 428 493 24,300 1,080 Climbing FlightAware ADS-B (KMDW)
08:07PM 40.5572 -86.2567 173° South 419 482 24,700 1,320 Climbing Indianapolis Center
08:08PM 40.4106 -86.2336 173° South 437 503 26,500 1,380 Climbing Indianapolis Center
08:09PM 40.2872 -86.2144 173° South 442 509 27,600 960 Climbing Indianapolis Center
08:09PM 40.2375 -86.2083 175° South 447 514 28,000 900 Climbing Chicago Center
08:10PM 40.1092 -86.1878 173° South 460 529 29,000 960 Climbing Chicago Center
08:11PM 40.0289 -86.1756 173° South 466 536 29,500 1,200 Climbing Indianapolis Center
08:16PM 39.3285 -86.0768 187° South 450 518 36,100 1,140 Climbing FlightAware ADS-B (KBRY)
08:17PM 39.1824 -86.1064 189° South 442 509 37,000 480 Climbing FlightAware ADS-B (KBRY)
08:18PM 39.1163 -86.1194 189° South 441 507 37,000  Level FlightAware ADS-B (KCVG)
08:19PM 39.0183 -86.1387 189° South 438 504 37,000  Level FlightAware ADS-B (KBRY)
08:22PM 38.6058 -86.2196 189° South 441 507 37,000  Level FlightAware ADS-B (KCVG)
08:23PM 38.4486 -86.2501 189° South 442 509 37,000  Level FlightAware ADS-B
08:24PM 38.3034 -86.2783 189° South 444 511 37,000  Level FlightAware ADS-B (KBRY)
08:25PM 38.1996 -86.2982 189° South 447 514 37,000 60 Level FlightAware ADS-B
08:26PM 38.1309 -86.3114 189° South 448 516 37,100  Climbing FlightAware ADS-B
08:26PM 38.0625 -86.3245 189° South 447 514 37,000 -120 Descending FlightAware ADS-B
08:27PM 38.0065 -86.3353 189° South 446 513 37,000  Level FlightAware ADS-B
08:27PM 37.9301 -86.3499 189° South 445 512 37,000  Level FlightAware ADS-B (KBRY)
08:28PM 37.8492 -86.3654 189° South 444 511 37,000  Level FlightAware ADS-B
08:29PM 37.7575 -86.3829 189° South 445 512 37,000  Level FlightAware ADS-B
08:29PM 37.6961 -86.3946 189° South 447 514 37,000  Level FlightAware ADS-B
08:30PM 37.6379 -86.4056 189° South 446 513 37,000  Level FlightAware ADS-B
08:30PM 37.5750 -86.4176 189° South 447 514 37,000  Level FlightAware ADS-B
08:31PM 37.5076 -86.4303 189° South 446 513 37,000  Level FlightAware ADS-B
08:31PM 37.4442 -86.4423 189° South 446 513 37,000  Level FlightAware ADS-B
08:32PM 37.3789 -86.4546 189° South 445 512 37,000  Level FlightAware ADS-B
08:33PM 37.2913 -86.4712 189° South 445 512 37,000  Level FlightAware ADS-B
08:33PM 37.2309 -86.4871 197° South 441 507 37,000  Level FlightAware ADS-B
08:34PM 37.1728 -86.5115 199° South 441 507 37,000  Level FlightAware ADS-B
08:34PM 37.0980 -86.5439 199° South 440 506 37,000  Level FlightAware ADS-B
08:35PM 37.0393 -86.5697 199° South 440 506 37,000  Level FlightAware ADS-B
08:35PM 36.9818 -86.5948 199° South 440 506 37,000  Level FlightAware ADS-B
08:36PM 36.9246 -86.6199 199° South 441 507 37,000  Level FlightAware ADS-B
08:36PM 36.8634 -86.6468 200° South 443 510 37,000  Level FlightAware ADS-B
08:37PM 36.8015 -86.6738 199° South 445 512 37,000  Level FlightAware ADS-B
08:37PM 36.7389 -86.7005 199° South 446 513 37,000  Level FlightAware ADS-B
08:38PM 36.6732 -86.7287 199° South 447 514 37,000  Level FlightAware ADS-B
08:38PM 36.6171 -86.7528 199° South 448 516 37,000  Level FlightAware ADS-B
08:39PM 36.5381 -86.7867 199° South 449 517 37,000 60 Level FlightAware ADS-B
08:40PM 36.4682 -86.8161 197° South 451 519 37,100  Climbing FlightAware ADS-B
08:40PM 36.4208 -86.8228 197° South 447 514 37,000 -120 Descending Indianapolis Center
08:41PM 36.2892 -86.7828 166° South 489 563 37,000  Level Indianapolis Center
08:42PM 36.1606 -86.7231 159° South 472 543 37,000  Level Indianapolis Center
08:43PM 36.0392 -86.6683 160° South 464 534 37,000  Level Indianapolis Center
08:44PM 35.9175 -86.6144 160° South 462 532 37,000  Level Indianapolis Center
08:45PM 35.7967 -86.5631 161° South 462 532 37,000  Level Atlanta Center
08:46PM 35.6728 -86.5056 159° South 474 545 37,000  Level Atlanta Center
08:47PM 35.5425 -86.4506 161° South 469 540 37,000  Level Atlanta Center
08:48PM 35.4203 -86.3936 159° South 469 540 37,000  Level Atlanta Center
08:49PM 35.2961 -86.3417 161° South 463 533 37,100  Climbing Atlanta Center
08:50PM 35.1761 -86.2875 160° South 458 527 37,000 -60 Descending Atlanta Center
08:51PM 35.0706 -86.2389 159° South 452 520 37,000  Level Atlanta Center
08:52PM 34.9506 -86.1850 160° South 452 520 37,000  Level Atlanta Center
08:53PM 34.8303 -86.1339 161° South 457 526 37,000  Level Atlanta Center
08:54PM 34.7103 -86.0806 160° South 463 533 37,000  Level Atlanta Center
08:55PM 34.5881 -86.0269 160° South 463 533 37,000  Level Atlanta Center
08:56PM 34.4594 -85.9711 160° South 463 533 37,000  Level Atlanta Center
08:57PM 34.3372 -85.9206 161° South 463 533 37,000  Level Atlanta Center
08:58PM 34.2189 -85.8675 160° South 463 533 37,000  Level Atlanta Center
08:59PM 34.1028 -85.8175 160° South 463 533 37,000  Level Atlanta Center
09:00PM 33.9947 -85.7800 164° South 458 527 37,000  Level Atlanta Center
09:01PM 33.8786 -85.7303 160° South 458 527 37,000  Level Atlanta Center
09:02PM 33.7603 -85.6806 161° South 453 521 37,000  Level Atlanta Center
09:03PM 33.6461 -85.6333 161° South 448 516 37,000  Level Atlanta Center
09:04PM 33.5300 -85.5839 160° South 443 510 37,000  Level Atlanta Center
09:05PM 33.4136 -85.5344 160° South 443 510 37,000  Level Atlanta Center
09:06PM 33.3036 -85.4828 159° South 443 510 37,000  Level Atlanta Center
09:07PM 33.1872 -85.4411 163° South 443 510 37,000  Level Atlanta Center
09:08PM 33.0750 -85.3947 161° South 438 504 37,000  Level Atlanta Center
09:09PM 32.9650 -85.3411 158° South 438 504 37,000  Level Atlanta Center
09:10PM 32.8506 -85.2950 161° South 432 497 37,000  Level Atlanta Center
09:11PM 32.7383 -85.2489 161° South 427 491 37,000  Level Atlanta Center
09:12PM 32.6261 -85.2031 161° South 427 491 37,000  Level Atlanta Center
09:13PM 32.5158 -85.1572 161° South 427 491 37,000  Level Atlanta Center
09:14PM 32.3975 -85.1089 161° South 433 498 37,000  Level Atlanta Center
09:15PM 32.2872 -85.0633 161° South 433 498 37,000  Level Atlanta Center
09:16PM 32.1622 -85.0178 163° South 428 493 37,000  Level Atlanta Center
09:17PM 32.0500 -84.9750 162° South 428 493 37,000  Level Atlanta Center
09:18PM 31.9872 -84.9403 155° Southeast 424 488 37,000  Level Jacksonville Center
09:19PM 31.8939 -84.9039 162° South 425 489 37,000  Level Jacksonville Center
09:20PM 31.7692 -84.8597 163° South 425 489 37,000  Level Jacksonville Center
09:25PM 31.2194 -84.6359 161° South 423 487 37,000  Level FlightAware ADS-B (KTLH)
09:27PM 31.0018 -84.5495 161° South 424 488 37,000  Level FlightAware ADS-B (KTLH)
09:27PM 30.9440 -84.5266 161° South 425 489 37,000  Level FlightAware ADS-B (KTLH)
09:28PM 30.8869 -84.5040 161° South 426 490 37,000  Level FlightAware ADS-B (KTLH)
09:28PM 30.8020 -84.4705 161° South 427 491 37,000  Level FlightAware ADS-B (KTLH)
09:29PM 30.7320 -84.4431 161° South 428 493 37,000  Level FlightAware ADS-B (KTLH)
09:30PM 30.6549 -84.4127 161° South 427 491 37,000  Level FlightAware ADS-B (KTLH)
09:30PM 30.5806 -84.3835 161° South 427 491 37,000  Level FlightAware ADS-B (KTLH)
09:31PM 30.5236 -84.3528 151° Southeast 430 495 37,000  Level FlightAware ADS-B (KTLH)
09:31PM 30.4755 -84.3208 150° Southeast 430 495 37,000  Level FlightAware ADS-B (KTLH)
09:32PM 30.4189 -84.2838 151° Southeast 429 494 37,000  Level FlightAware ADS-B (KTLH)
09:32PM 30.3530 -84.2407 150° Southeast 428 493 37,000  Level FlightAware ADS-B (KTLH)
09:33PM 30.3032 -84.2082 151° Southeast 425 489 37,000  Level FlightAware ADS-B (KTLH)
09:33PM 30.2486 -84.1725 150° Southeast 423 487 37,000  Level FlightAware ADS-B (KTLH)
09:34PM 30.1622 -84.1161 151° Southeast 423 487 37,000 -360 Level FlightAware ADS-B (KTLH)
09:35PM 30.0994 -84.0754 151° Southeast 420 483 36,500 -900 Descending FlightAware ADS-B (KTLH)
09:35PM 30.0452 -84.0400 151° Southeast 426 490 36,000 -1,020 Descending FlightAware ADS-B (KTLH)
09:36PM 29.9968 -84.0085 151° Southeast 431 496 35,500 -900 Descending FlightAware ADS-B (KTLH)
09:36PM 29.9396 -83.9714 151° Southeast 435 501 35,100 -420 Descending FlightAware ADS-B (KTLH)
09:37PM 29.8772 -83.9306 151° Southeast 432 497 35,000 -120 Descending Miami Center
09:38PM 29.8075 -83.8858 151° Southeast 433 498 35,000  Level Jacksonville Center
09:39PM 29.7017 -83.8203 152° Southeast 433 498 35,000 -120 Level Jacksonville Center
09:40PM 29.5975 -83.7547 151° Southeast 433 498 34,800 -1,800 Descending Jacksonville Center
09:41PM 29.4811 -83.6775 150° Southeast 433 498 31,500 -2,880 Descending Jacksonville Center
09:42PM 29.3772 -83.6100 150° Southeast 433 498 29,100 -1,920 Descending Jacksonville Center
09:43PM 29.2753 -83.5472 152° Southeast 428 493 27,700 -1,500 Descending Jacksonville Center
09:44PM 29.1775 -83.4847 151° Southeast 417 480 26,200 -1,560 Descending Jacksonville Center
09:45PM 29.0817 -83.4225 150° Southeast 405 466 24,600 -1,680 Descending Jacksonville Center
09:46PM 28.9900 -83.3603 149° Southeast 389 448 22,900 -1,620 Descending Jacksonville Center
09:47PM 28.8986 -83.3053 152° Southeast 384 442 21,400 -1,560 Descending Jacksonville Center
09:48PM 28.8131 -83.2503 151° Southeast 370 426 19,800 -1,560 Descending Jacksonville Center
09:49PM 28.7256 -83.1956 151° Southeast 364 419 18,300 -1,440 Descending Jacksonville Center
09:50PM 28.6108 -83.1206 150° Southeast 346 398 16,300 -1,500 Descending Miami Center
09:51PM 28.5500 -83.0833 152° Southeast 341 392 15,200 -1,920 Descending Tampa TRACON
09:52PM 28.4500 -83.0333 156° South 335 386 13,200 -1,800 Descending Tampa TRACON
09:53PM 28.3833 -82.9833 147° Southeast 327 376 11,500 -1,380 Descending Tampa TRACON
09:54PM 28.3000 -82.9333 152° Southeast 291 335 10,500 -1,320 Descending Tampa TRACON
09:55PM 28.2333 -82.8833 147° Southeast 286 329 8,900 -1,680 Descending Tampa TRACON
09:56PM 28.1667 -82.8500 156° South 282 325 7,200 -1,740 Descending Tampa TRACON
09:57PM 28.0833 -82.8000 152° Southeast 275 316 5,300 -1,680 Descending Tampa TRACON
09:58PM 28.0167 -82.7833 168° South 264 304 3,700 -1,380 Descending Tampa TRACON
09:59PM 27.9500 -82.7833 180° South 258 297 2,600 -840 Descending Tampa TRACON
10:00PM 27.8833 -82.7667 168° South 227 261 2,200 -480 Descending Tampa TRACON
10:01PM 27.8333 -82.7500 164° South 193 222 1,600 -360 Descending Tampa TRACON
10:02PM 27.8333 -82.7000 90° East 143 165 1,400 -480 Descending Tampa TRACON
10:03PM 27.8667 -82.6833 24° Northeast 138 159 700 -720 Descending Tampa TRACON